sensor_id;sensor_type;location;lat;lon;timestamp;P1;durP1;ratioP1;P2;durP2;ratioP2
26824;SDS011;14402;48.178;11.566;2023-05-07T00:00:23;8.4;;;6.4;;
26824;SDS011;14402;48.178;11.566;2023-05-07T00:00:53;8.1;;;6.2;;
26824;SDS011;14402;48.178;11.566;2023-05-07T00:01:23;7.8;;;6.0;;
26824;SDS011;14402;48.178;11.566;2023-05-07T00:01:53;7.8;;;6.0;;
26824;SDS011;14402;48.178;11.566;2023-05-07T00:02:23;7.8;;;6.0;;
26824;SDS011;14402;48.178;11.566;2023-05-07T00:02:53;8.0;;;6.2;;
26824;SDS011;14402;48.178;11.566;2023-05-07T00:03:24;8.2;;;6.5;;
26824;SDS011;14402;48.178;11.566;2023-05-07T00:03:54;8.2;;;6.5;;
26824;SDS011;14402;48.178;11.566;2023-05-07T00:04:24;8.2;;;6.5;;
26824;SDS011;14402;48.178;11.566;2023-05-07T00:04:54;8.5;;;6.7;;
26824;SDS011;14402;48.178;11.566;2023-05-07T00:05:24;8.8;;;6.9;;
26824;SDS011;14402;48.178;11.566;2023-05-07T00:05:54;8.8;;;6.9;;
26824;SDS011;14402;48.178;11.566;2023-05-07T00:06:24;8.8;;;6.9;;
26824;SDS011;14402;48.178;11.566;2023-05-07T00:06:54;9.1;;;6.8;;
26824;SDS011;14402;48.178;11.566;2023-05-07T00:07:24;9.4;;;6.7;;
26824;SDS011;14402;48.178;11.566;2023-05-07T00:07:54;9.4;;;6.7;;
26824;SDS011;14402;48.178;11.566;2023-05-07T00:08:24;9.4;;;6.7;;
26824;SDS011;14402;48.178;11.566;2023-05-07T00:08:55;9.1;;;6.7;;
26824;SDS011;14402;48.178;11.566;2023-05-07T00:09:24;8.9;;;6.7;;
26824;SDS011;14402;48.178;11.566;2023-05-07T00:09:54;8.9;;;6.7;;
26824;SDS011;14402;48.178;11.566;2023-05-07T00:10:25;8.9;;;6.7;;
26824;SDS011;14402;48.178;11.566;2023-05-07T00:10:54;9.5;;;7.1;;
26824;SDS011;14402;48.178;11.566;2023-05-07T00:11:25;10.1;;;7.4;;
26824;SDS011;14402;48.178;11.566;2023-05-07T00:11:55;10.1;;;7.4;;
26824;SDS011;14402;48.178;11.566;2023-05-07T00:12:25;10.1;;;7.4;;
26824;SDS011;14402;48.178;11.566;2023-05-07T00:12:55;9.1;;;7.2;;
26824;SDS011;14402;48.178;11.566;2023-05-07T00:13:25;8.0;;;7.0;;
26824;SDS011;14402;48.178;11.566;2023-05-07T00:13:55;8.0;;;7.0;;
26824;SDS011;14402;48.178;11.566;2023-05-07T00:14:25;8.0;;;7.0;;
26824;SDS011;14402;48.178;11.566;2023-05-07T00:14:55;8.6;;;7.4;;
26824;SDS011;14402;48.178;11.566;2023-05-07T00:15:25;9.2;;;7.8;;
26824;SDS011;14402;48.178;11.566;2023-05-07T00:15:55;9.2;;;7.8;;
26824;SDS011;14402;48.178;11.566;2023-05-07T00:16:25;9.2;;;7.8;;
26824;SDS011;14402;48.178;11.566;2023-05-07T00:16:55;10.0;;;7.7;;
26824;SDS011;14402;48.178;11.566;2023-05-07T00:17:26;10.8;;;7.5;;
26824;SDS011;14402;48.178;11.566;2023-05-07T00:17:55;10.8;;;7.5;;
26824;SDS011;14402;48.178;11.566;2023-05-07T00:18:25;10.8;;;7.5;;
26824;SDS011;14402;48.178;11.566;2023-05-07T00:18:55;10.4;;;7.7;;
26824;SDS011;14402;48.178;11.566;2023-05-07T00:19:26;10.0;;;7.8;;
26824;SDS011;14402;48.178;11.566;2023-05-07T00:19:56;10.0;;;7.8;;
26824;SDS011;14402;48.178;11.566;2023-05-07T00:20:26;10.0;;;7.8;;
26824;SDS011;14402;48.178;11.566;2023-05-07T00:20:56;10.8;;;7.8;;
26824;SDS011;14402;48.178;11.566;2023-05-07T00:21:26;11.5;;;7.7;;
26824;SDS011;14402;48.178;11.566;2023-05-07T00:21:56;11.5;;;7.7;;
26824;SDS011;14402;48.178;11.566;2023-05-07T00:22:26;11.5;;;7.7;;
26824;SDS011;14402;48.178;11.566;2023-05-07T00:22:56;10.1;;;7.6;;
26824;SDS011;14402;48.178;11.566;2023-05-07T00:23:26;8.8;;;7.4;;
26824;SDS011;14402;48.178;11.566;2023-05-07T00:23:56;8.8;;;7.4;;
26824;SDS011;14402;48.178;11.566;2023-05-07T00:24:26;8.8;;;7.4;;
26824;SDS011;14402;48.178;11.566;2023-05-07T00:24:56;9.2;;;7.2;;
26824;SDS011;14402;48.178;11.566;2023-05-07T00:25:26;9.7;;;7.0;;
26824;SDS011;14402;48.178;11.566;2023-05-07T00:25:56;9.7;;;7.0;;
26824;SDS011;14402;48.178;11.566;2023-05-07T00:26:27;9.7;;;7.0;;
26824;SDS011;14402;48.178;11.566;2023-05-07T00:26:56;10.1;;;6.9;;
26824;SDS011;14402;48.178;11.566;2023-05-07T00:27:27;10.6;;;6.8;;
26824;SDS011;14402;48.178;11.566;2023-05-07T00:27:57;10.6;;;6.8;;
26824;SDS011;14402;48.178;11.566;2023-05-07T00:28:27;10.6;;;6.8;;
26824;SDS011;14402;48.178;11.566;2023-05-07T00:28:57;9.4;;;6.8;;
26824;SDS011;14402;48.178;11.566;2023-05-07T00:29:27;8.1;;;6.7;;
26824;SDS011;14402;48.178;11.566;2023-05-07T00:29:57;8.1;;;6.7;;
26824;SDS011;14402;48.178;11.566;2023-05-07T00:30:27;8.1;;;6.7;;
26824;SDS011;14402;48.178;11.566;2023-05-07T00:30:57;8.6;;;6.7;;
26824;SDS011;14402;48.178;11.566;2023-05-07T00:31:27;9.1;;;6.7;;
26824;SDS011;14402;48.178;11.566;2023-05-07T00:31:57;9.1;;;6.7;;
26824;SDS011;14402;48.178;11.566;2023-05-07T00:32:27;9.1;;;6.7;;
26824;SDS011;14402;48.178;11.566;2023-05-07T00:32:57;10.1;;;7.0;;
26824;SDS011;14402;48.178;11.566;2023-05-07T00:33:27;11.1;;;7.3;;
26824;SDS011;14402;48.178;11.566;2023-05-07T00:33:57;11.1;;;7.3;;
26824;SDS011;14402;48.178;11.566;2023-05-07T00:34:27;11.1;;;7.3;;
26824;SDS011;14402;48.178;11.566;2023-05-07T00:34:57;10.8;;;7.2;;
26824;SDS011;14402;48.178;11.566;2023-05-07T00:35:28;10.5;;;7.2;;
26824;SDS011;14402;48.178;11.566;2023-05-07T00:35:58;10.5;;;7.2;;
26824;SDS011;14402;48.178;11.566;2023-05-07T00:36:28;10.5;;;7.2;;
26824;SDS011;14402;48.178;11.566;2023-05-07T00:36:58;10.3;;;7.1;;
26824;SDS011;14402;48.178;11.566;2023-05-07T00:37:28;10.1;;;7.0;;
26824;SDS011;14402;48.178;11.566;2023-05-07T00:37:58;10.1;;;7.0;;
26824;SDS011;14402;48.178;11.566;2023-05-07T00:38:28;10.1;;;7.0;;
26824;SDS011;14402;48.178;11.566;2023-05-07T00:38:58;10.5;;;6.9;;
26824;SDS011;14402;48.178;11.566;2023-05-07T00:39:28;10.8;;;6.9;;
26824;SDS011;14402;48.178;11.566;2023-05-07T00:39:58;10.8;;;6.9;;
26824;SDS011;14402;48.178;11.566;2023-05-07T00:40:28;10.8;;;6.9;;
26824;SDS011;14402;48.178;11.566;2023-05-07T00:40:58;11.5;;;7.2;;
26824;SDS011;14402;48.178;11.566;2023-05-07T00:41:28;12.2;;;7.4;;
26824;SDS011;14402;48.178;11.566;2023-05-07T00:41:58;12.2;;;7.4;;
26824;SDS011;14402;48.178;11.566;2023-05-07T00:42:29;12.2;;;7.4;;
26824;SDS011;14402;48.178;11.566;2023-05-07T00:42:59;11.5;;;7.1;;
26824;SDS011;14402;48.178;11.566;2023-05-07T00:43:29;10.8;;;6.7;;
26824;SDS011;14402;48.178;11.566;2023-05-07T00:43:59;10.8;;;6.7;;
26824;SDS011;14402;48.178;11.566;2023-05-07T00:44:29;10.8;;;6.7;;
26824;SDS011;14402;48.178;11.566;2023-05-07T00:44:59;9.9;;;6.8;;
26824;SDS011;14402;48.178;11.566;2023-05-07T00:45:29;9.0;;;6.9;;
26824;SDS011;14402;48.178;11.566;2023-05-07T00:45:59;9.0;;;6.9;;
26824;SDS011;14402;48.178;11.566;2023-05-07T00:46:29;9.0;;;6.9;;
26824;SDS011;14402;48.178;11.566;2023-05-07T00:46:59;9.4;;;7.0;;
26824;SDS011;14402;48.178;11.566;2023-05-07T00:47:29;9.7;;;7.1;;
26824;SDS011;14402;48.178;11.566;2023-05-07T00:48:00;9.7;;;7.1;;
26824;SDS011;14402;48.178;11.566;2023-05-07T00:48:29;9.7;;;7.1;;
26824;SDS011;14402;48.178;11.566;2023-05-07T00:48:59;8.6;;;6.8;;
26824;SDS011;14402;48.178;11.566;2023-05-07T00:49:32;7.5;;;6.6;;
26824;SDS011;14402;48.178;11.566;2023-05-07T00:49:59;7.5;;;6.6;;
26824;SDS011;14402;48.178;11.566;2023-05-07T00:50:30;7.5;;;6.6;;
26824;SDS011;14402;48.178;11.566;2023-05-07T00:50:59;8.2;;;6.9;;
26824;SDS011;14402;48.178;11.566;2023-05-07T00:51:30;9.0;;;7.2;;
26824;SDS011;14402;48.178;11.566;2023-05-07T00:52:00;9.0;;;7.2;;
26824;SDS011;14402;48.178;11.566;2023-05-07T00:52:30;9.0;;;7.2;;
26824;SDS011;14402;48.178;11.566;2023-05-07T00:53:00;9.8;;;7.1;;
26824;SDS011;14402;48.178;11.566;2023-05-07T00:53:30;10.5;;;7.1;;
26824;SDS011;14402;48.178;11.566;2023-05-07T00:54:00;10.5;;;7.1;;
26824;SDS011;14402;48.178;11.566;2023-05-07T00:54:30;10.5;;;7.1;;
26824;SDS011;14402;48.178;11.566;2023-05-07T00:55:00;9.9;;;6.8;;
26824;SDS011;14402;48.178;11.566;2023-05-07T00:55:30;9.2;;;6.6;;
26824;SDS011;14402;48.178;11.566;2023-05-07T00:56:00;9.2;;;6.6;;
26824;SDS011;14402;48.178;11.566;2023-05-07T00:56:30;9.2;;;6.6;;
26824;SDS011;14402;48.178;11.566;2023-05-07T00:57:01;9.9;;;6.8;;
26824;SDS011;14402;48.178;11.566;2023-05-07T00:57:32;10.6;;;7.1;;
26824;SDS011;14402;48.178;11.566;2023-05-07T00:58:00;10.6;;;7.1;;
26824;SDS011;14402;48.178;11.566;2023-05-07T00:58:30;10.6;;;7.1;;
26824;SDS011;14402;48.178;11.566;2023-05-07T00:59:00;9.9;;;6.9;;
26824;SDS011;14402;48.178;11.566;2023-05-07T00:59:31;9.1;;;6.8;;
26824;SDS011;14402;48.178;11.566;2023-05-07T01:00:01;9.1;;;6.8;;
26824;SDS011;14402;48.178;11.566;2023-05-07T01:00:31;9.1;;;6.8;;
26824;SDS011;14402;48.178;11.566;2023-05-07T01:01:01;10.1;;;6.9;;
26824;SDS011;14402;48.178;11.566;2023-05-07T01:01:31;11.1;;;7.1;;
26824;SDS011;14402;48.178;11.566;2023-05-07T01:02:01;11.1;;;7.1;;
26824;SDS011;14402;48.178;11.566;2023-05-07T01:02:31;11.1;;;7.1;;
26824;SDS011;14402;48.178;11.566;2023-05-07T01:03:01;9.7;;;7.0;;
26824;SDS011;14402;48.178;11.566;2023-05-07T01:03:31;8.3;;;6.9;;
26824;SDS011;14402;48.178;11.566;2023-05-07T01:04:01;8.3;;;6.9;;
26824;SDS011;14402;48.178;11.566;2023-05-07T01:04:31;8.3;;;6.9;;
26824;SDS011;14402;48.178;11.566;2023-05-07T01:05:01;8.9;;;6.9;;
26824;SDS011;14402;48.178;11.566;2023-05-07T01:05:31;9.5;;;6.9;;
26824;SDS011;14402;48.178;11.566;2023-05-07T01:06:01;9.5;;;6.9;;
26824;SDS011;14402;48.178;11.566;2023-05-07T01:06:31;9.5;;;6.9;;
26824;SDS011;14402;48.178;11.566;2023-05-07T01:07:01;9.4;;;6.9;;
26824;SDS011;14402;48.178;11.566;2023-05-07T01:07:32;9.2;;;6.9;;
26824;SDS011;14402;48.178;11.566;2023-05-07T01:08:02;9.2;;;6.9;;
26824;SDS011;14402;48.178;11.566;2023-05-07T01:08:32;9.2;;;6.9;;
26824;SDS011;14402;48.178;11.566;2023-05-07T01:09:02;9.9;;;6.9;;
26824;SDS011;14402;48.178;11.566;2023-05-07T01:09:32;10.6;;;7.0;;
26824;SDS011;14402;48.178;11.566;2023-05-07T01:10:02;10.6;;;7.0;;
26824;SDS011;14402;48.178;11.566;2023-05-07T01:10:32;10.6;;;7.0;;
26824;SDS011;14402;48.178;11.566;2023-05-07T01:11:02;9.1;;;6.7;;
26824;SDS011;14402;48.178;11.566;2023-05-07T01:11:32;7.5;;;6.3;;
26824;SDS011;14402;48.178;11.566;2023-05-07T01:12:02;7.5;;;6.3;;
26824;SDS011;14402;48.178;11.566;2023-05-07T01:12:32;7.5;;;6.3;;
26824;SDS011;14402;48.178;11.566;2023-05-07T01:13:02;8.1;;;6.4;;
26824;SDS011;14402;48.178;11.566;2023-05-07T01:13:32;8.8;;;6.5;;
26824;SDS011;14402;48.178;11.566;2023-05-07T01:14:02;8.8;;;6.5;;
26824;SDS011;14402;48.178;11.566;2023-05-07T01:14:32;8.8;;;6.5;;
26824;SDS011;14402;48.178;11.566;2023-05-07T01:15:03;8.5;;;6.3;;
26824;SDS011;14402;48.178;11.566;2023-05-07T01:15:32;8.1;;;6.1;;
26824;SDS011;14402;48.178;11.566;2023-05-07T01:16:03;8.1;;;6.1;;
26824;SDS011;14402;48.178;11.566;2023-05-07T01:16:33;8.1;;;6.1;;
26824;SDS011;14402;48.178;11.566;2023-05-07T01:17:03;9.6;;;6.8;;
26824;SDS011;14402;48.178;11.566;2023-05-07T01:17:34;11.1;;;7.4;;
26824;SDS011;14402;48.178;11.566;2023-05-07T01:18:03;11.1;;;7.4;;
26824;SDS011;14402;48.178;11.566;2023-05-07T01:18:33;11.1;;;7.4;;
26824;SDS011;14402;48.178;11.566;2023-05-07T01:19:03;10.2;;;7.4;;
26824;SDS011;14402;48.178;11.566;2023-05-07T01:19:33;9.3;;;7.3;;
26824;SDS011;14402;48.178;11.566;2023-05-07T01:20:03;9.3;;;7.3;;
26824;SDS011;14402;48.178;11.566;2023-05-07T01:20:33;9.3;;;7.3;;
26824;SDS011;14402;48.178;11.566;2023-05-07T01:21:04;9.0;;;6.9;;
26824;SDS011;14402;48.178;11.566;2023-05-07T01:21:33;8.7;;;6.5;;
26824;SDS011;14402;48.178;11.566;2023-05-07T01:22:06;8.7;;;6.5;;
26824;SDS011;14402;48.178;11.566;2023-05-07T01:22:34;8.7;;;6.5;;
26824;SDS011;14402;48.178;11.566;2023-05-07T01:23:03;9.4;;;6.5;;
26824;SDS011;14402;48.178;11.566;2023-05-07T01:23:33;10.1;;;6.5;;
26824;SDS011;14402;48.178;11.566;2023-05-07T01:24:04;10.1;;;6.5;;
26824;SDS011;14402;48.178;11.566;2023-05-07T01:24:34;10.1;;;6.5;;
26824;SDS011;14402;48.178;11.566;2023-05-07T01:25:04;10.1;;;6.4;;
26824;SDS011;14402;48.178;11.566;2023-05-07T01:25:34;10.0;;;6.4;;
26824;SDS011;14402;48.178;11.566;2023-05-07T01:26:04;10.0;;;6.4;;
26824;SDS011;14402;48.178;11.566;2023-05-07T01:26:34;10.0;;;6.4;;
26824;SDS011;14402;48.178;11.566;2023-05-07T01:27:04;10.6;;;6.6;;
26824;SDS011;14402;48.178;11.566;2023-05-07T01:27:34;11.2;;;6.7;;
26824;SDS011;14402;48.178;11.566;2023-05-07T01:28:04;11.2;;;6.7;;
26824;SDS011;14402;48.178;11.566;2023-05-07T01:28:34;11.2;;;6.7;;
26824;SDS011;14402;48.178;11.566;2023-05-07T01:29:04;9.9;;;6.4;;
26824;SDS011;14402;48.178;11.566;2023-05-07T01:29:34;8.7;;;6.2;;
26824;SDS011;14402;48.178;11.566;2023-05-07T01:30:05;8.7;;;6.2;;
26824;SDS011;14402;48.178;11.566;2023-05-07T01:30:34;8.7;;;6.2;;
26824;SDS011;14402;48.178;11.566;2023-05-07T01:31:04;8.4;;;6.0;;
26824;SDS011;14402;48.178;11.566;2023-05-07T01:31:34;8.1;;;5.8;;
26824;SDS011;14402;48.178;11.566;2023-05-07T01:32:05;8.1;;;5.8;;
26824;SDS011;14402;48.178;11.566;2023-05-07T01:32:35;8.1;;;5.8;;
26824;SDS011;14402;48.178;11.566;2023-05-07T01:33:06;8.4;;;5.9;;
26824;SDS011;14402;48.178;11.566;2023-05-07T01:33:35;8.7;;;5.9;;
26824;SDS011;14402;48.178;11.566;2023-05-07T01:34:05;8.7;;;5.9;;
26824;SDS011;14402;48.178;11.566;2023-05-07T01:34:35;8.7;;;5.9;;
26824;SDS011;14402;48.178;11.566;2023-05-07T01:35:05;8.7;;;6.0;;
26824;SDS011;14402;48.178;11.566;2023-05-07T01:35:36;8.7;;;6.1;;
26824;SDS011;14402;48.178;11.566;2023-05-07T01:36:05;8.7;;;6.1;;
26824;SDS011;14402;48.178;11.566;2023-05-07T01:36:35;8.7;;;6.1;;
26824;SDS011;14402;48.178;11.566;2023-05-07T01:37:05;8.9;;;5.9;;
26824;SDS011;14402;48.178;11.566;2023-05-07T01:37:35;9.2;;;5.7;;
26824;SDS011;14402;48.178;11.566;2023-05-07T01:38:05;9.2;;;5.7;;
26824;SDS011;14402;48.178;11.566;2023-05-07T01:38:36;9.2;;;5.7;;
26824;SDS011;14402;48.178;11.566;2023-05-07T01:39:05;8.6;;;5.8;;
26824;SDS011;14402;48.178;11.566;2023-05-07T01:39:35;7.9;;;5.8;;
26824;SDS011;14402;48.178;11.566;2023-05-07T01:40:06;7.9;;;5.8;;
26824;SDS011;14402;48.178;11.566;2023-05-07T01:40:36;7.9;;;5.8;;
26824;SDS011;14402;48.178;11.566;2023-05-07T01:41:06;8.1;;;5.8;;
26824;SDS011;14402;48.178;11.566;2023-05-07T01:41:36;8.2;;;5.7;;
26824;SDS011;14402;48.178;11.566;2023-05-07T01:42:06;8.2;;;5.7;;
26824;SDS011;14402;48.178;11.566;2023-05-07T01:42:36;8.2;;;5.7;;
26824;SDS011;14402;48.178;11.566;2023-05-07T01:43:06;8.1;;;5.6;;
26824;SDS011;14402;48.178;11.566;2023-05-07T01:43:36;7.9;;;5.5;;
26824;SDS011;14402;48.178;11.566;2023-05-07T01:44:06;7.9;;;5.5;;
26824;SDS011;14402;48.178;11.566;2023-05-07T01:44:36;7.9;;;5.5;;
26824;SDS011;14402;48.178;11.566;2023-05-07T01:45:06;7.7;;;5.7;;
26824;SDS011;14402;48.178;11.566;2023-05-07T01:45:36;7.5;;;5.9;;
26824;SDS011;14402;48.178;11.566;2023-05-07T01:46:06;7.5;;;5.9;;
26824;SDS011;14402;48.178;11.566;2023-05-07T01:46:36;7.5;;;5.9;;
26824;SDS011;14402;48.178;11.566;2023-05-07T01:47:06;7.2;;;5.6;;
26824;SDS011;14402;48.178;11.566;2023-05-07T01:47:37;7.0;;;5.2;;
26824;SDS011;14402;48.178;11.566;2023-05-07T01:48:07;7.0;;;5.2;;
26824;SDS011;14402;48.178;11.566;2023-05-07T01:48:37;7.0;;;5.2;;
26824;SDS011;14402;48.178;11.566;2023-05-07T01:49:06;7.6;;;5.2;;
26824;SDS011;14402;48.178;11.566;2023-05-07T01:49:37;8.2;;;5.3;;
26824;SDS011;14402;48.178;11.566;2023-05-07T01:50:07;8.2;;;5.3;;
26824;SDS011;14402;48.178;11.566;2023-05-07T01:50:37;8.2;;;5.3;;
26824;SDS011;14402;48.178;11.566;2023-05-07T01:51:07;8.0;;;5.5;;
26824;SDS011;14402;48.178;11.566;2023-05-07T01:51:37;7.8;;;5.7;;
26824;SDS011;14402;48.178;11.566;2023-05-07T01:52:07;7.8;;;5.7;;
26824;SDS011;14402;48.178;11.566;2023-05-07T01:52:37;7.8;;;5.7;;
26824;SDS011;14402;48.178;11.566;2023-05-07T01:53:07;7.3;;;5.4;;
26824;SDS011;14402;48.178;11.566;2023-05-07T01:53:37;6.8;;;5.2;;
26824;SDS011;14402;48.178;11.566;2023-05-07T01:54:07;6.8;;;5.2;;
26824;SDS011;14402;48.178;11.566;2023-05-07T01:54:37;6.8;;;5.2;;
26824;SDS011;14402;48.178;11.566;2023-05-07T01:55:07;6.4;;;5.1;;
26824;SDS011;14402;48.178;11.566;2023-05-07T01:55:37;6.0;;;5.1;;
26824;SDS011;14402;48.178;11.566;2023-05-07T01:56:07;6.0;;;5.1;;
26824;SDS011;14402;48.178;11.566;2023-05-07T01:56:37;6.0;;;5.1;;
26824;SDS011;14402;48.178;11.566;2023-05-07T01:57:08;5.9;;;5.1;;
26824;SDS011;14402;48.178;11.566;2023-05-07T01:57:38;5.8;;;5.2;;
26824;SDS011;14402;48.178;11.566;2023-05-07T01:58:08;5.8;;;5.2;;
26824;SDS011;14402;48.178;11.566;2023-05-07T01:58:38;5.8;;;5.2;;
26824;SDS011;14402;48.178;11.566;2023-05-07T01:59:08;6.1;;;4.9;;
26824;SDS011;14402;48.178;11.566;2023-05-07T01:59:38;6.4;;;4.7;;
26824;SDS011;14402;48.178;11.566;2023-05-07T02:00:08;6.4;;;4.7;;
26824;SDS011;14402;48.178;11.566;2023-05-07T02:00:39;6.4;;;4.7;;
26824;SDS011;14402;48.178;11.566;2023-05-07T02:01:08;5.9;;;4.8;;
26824;SDS011;14402;48.178;11.566;2023-05-07T02:01:38;5.4;;;4.9;;
26824;SDS011;14402;48.178;11.566;2023-05-07T02:02:08;5.4;;;4.9;;
26824;SDS011;14402;48.178;11.566;2023-05-07T02:02:38;5.4;;;4.9;;
26824;SDS011;14402;48.178;11.566;2023-05-07T02:03:08;5.9;;;4.9;;
26824;SDS011;14402;48.178;11.566;2023-05-07T02:03:38;6.4;;;5.0;;
26824;SDS011;14402;48.178;11.566;2023-05-07T02:04:08;6.4;;;5.0;;
26824;SDS011;14402;48.178;11.566;2023-05-07T02:04:38;6.4;;;5.0;;
26824;SDS011;14402;48.178;11.566;2023-05-07T02:05:08;6.2;;;4.9;;
26824;SDS011;14402;48.178;11.566;2023-05-07T02:05:38;6.0;;;4.9;;
26824;SDS011;14402;48.178;11.566;2023-05-07T02:06:09;6.0;;;4.9;;
26824;SDS011;14402;48.178;11.566;2023-05-07T02:06:39;6.0;;;4.9;;
26824;SDS011;14402;48.178;11.566;2023-05-07T02:07:09;5.9;;;4.9;;
26824;SDS011;14402;48.178;11.566;2023-05-07T02:07:39;5.9;;;4.9;;
26824;SDS011;14402;48.178;11.566;2023-05-07T02:08:09;5.9;;;4.9;;
26824;SDS011;14402;48.178;11.566;2023-05-07T02:08:39;5.9;;;4.9;;
26824;SDS011;14402;48.178;11.566;2023-05-07T02:09:09;6.3;;;4.7;;
26824;SDS011;14402;48.178;11.566;2023-05-07T02:09:39;6.7;;;4.4;;
26824;SDS011;14402;48.178;11.566;2023-05-07T02:10:09;6.7;;;4.4;;
26824;SDS011;14402;48.178;11.566;2023-05-07T02:10:39;6.7;;;4.4;;
26824;SDS011;14402;48.178;11.566;2023-05-07T02:11:09;6.4;;;4.7;;
26824;SDS011;14402;48.178;11.566;2023-05-07T02:11:39;6.1;;;5.0;;
26824;SDS011;14402;48.178;11.566;2023-05-07T02:12:09;6.1;;;5.0;;
26824;SDS011;14402;48.178;11.566;2023-05-07T02:12:39;6.1;;;5.0;;
26824;SDS011;14402;48.178;11.566;2023-05-07T02:13:09;6.4;;;4.9;;
26824;SDS011;14402;48.178;11.566;2023-05-07T02:13:39;6.8;;;4.9;;
26824;SDS011;14402;48.178;11.566;2023-05-07T02:14:10;6.8;;;4.9;;
26824;SDS011;14402;48.178;11.566;2023-05-07T02:14:40;6.8;;;4.9;;
26824;SDS011;14402;48.178;11.566;2023-05-07T02:15:10;6.8;;;4.9;;
26824;SDS011;14402;48.178;11.566;2023-05-07T02:15:40;6.0;;;4.8;;
26824;SDS011;14402;48.178;11.566;2023-05-07T02:16:10;5.2;;;4.6;;
26824;SDS011;14402;48.178;11.566;2023-05-07T02:16:40;5.2;;;4.6;;
26824;SDS011;14402;48.178;11.566;2023-05-07T02:17:11;5.2;;;4.6;;
26824;SDS011;14402;48.178;11.566;2023-05-07T02:17:57;5.7;;;4.8;;
26824;SDS011;14402;48.178;11.566;2023-05-07T02:18:10;6.2;;;5.0;;
26824;SDS011;14402;48.178;11.566;2023-05-07T02:18:40;6.2;;;5.0;;
26824;SDS011;14402;48.178;11.566;2023-05-07T02:19:10;6.2;;;5.0;;
26824;SDS011;14402;48.178;11.566;2023-05-07T02:19:40;5.9;;;4.8;;
26824;SDS011;14402;48.178;11.566;2023-05-07T02:20:11;5.7;;;4.6;;
26824;SDS011;14402;48.178;11.566;2023-05-07T02:20:40;5.7;;;4.6;;
26824;SDS011;14402;48.178;11.566;2023-05-07T02:21:10;5.7;;;4.6;;
26824;SDS011;14402;48.178;11.566;2023-05-07T02:21:41;5.3;;;4.6;;
26824;SDS011;14402;48.178;11.566;2023-05-07T02:22:11;5.0;;;4.5;;
26824;SDS011;14402;48.178;11.566;2023-05-07T02:22:41;5.0;;;4.5;;
26824;SDS011;14402;48.178;11.566;2023-05-07T02:23:11;5.0;;;4.5;;
26824;SDS011;14402;48.178;11.566;2023-05-07T02:23:41;5.6;;;4.6;;
26824;SDS011;14402;48.178;11.566;2023-05-07T02:24:11;6.2;;;4.6;;
26824;SDS011;14402;48.178;11.566;2023-05-07T02:24:41;6.2;;;4.6;;
26824;SDS011;14402;48.178;11.566;2023-05-07T02:25:11;6.2;;;4.6;;
26824;SDS011;14402;48.178;11.566;2023-05-07T02:25:41;6.3;;;4.6;;
26824;SDS011;14402;48.178;11.566;2023-05-07T02:26:11;6.4;;;4.6;;
26824;SDS011;14402;48.178;11.566;2023-05-07T02:26:41;6.4;;;4.6;;
26824;SDS011;14402;48.178;11.566;2023-05-07T02:27:11;6.4;;;4.6;;
26824;SDS011;14402;48.178;11.566;2023-05-07T02:27:41;5.7;;;4.6;;
26824;SDS011;14402;48.178;11.566;2023-05-07T02:28:11;5.0;;;4.5;;
26824;SDS011;14402;48.178;11.566;2023-05-07T02:28:41;5.0;;;4.5;;
26824;SDS011;14402;48.178;11.566;2023-05-07T02:29:11;5.0;;;4.5;;
26824;SDS011;14402;48.178;11.566;2023-05-07T02:29:41;5.5;;;4.5;;
26824;SDS011;14402;48.178;11.566;2023-05-07T02:30:12;6.0;;;4.5;;
26824;SDS011;14402;48.178;11.566;2023-05-07T02:30:42;6.0;;;4.5;;
26824;SDS011;14402;48.178;11.566;2023-05-07T02:31:12;6.0;;;4.5;;
26824;SDS011;14402;48.178;11.566;2023-05-07T02:31:42;6.2;;;4.5;;
26824;SDS011;14402;48.178;11.566;2023-05-07T02:32:12;6.5;;;4.5;;
26824;SDS011;14402;48.178;11.566;2023-05-07T02:32:42;6.5;;;4.5;;
26824;SDS011;14402;48.178;11.566;2023-05-07T02:33:12;6.5;;;4.5;;
26824;SDS011;14402;48.178;11.566;2023-05-07T02:33:42;5.7;;;4.4;;
26824;SDS011;14402;48.178;11.566;2023-05-07T02:34:12;4.8;;;4.3;;
26824;SDS011;14402;48.178;11.566;2023-05-07T02:34:42;4.8;;;4.3;;
26824;SDS011;14402;48.178;11.566;2023-05-07T02:35:12;4.8;;;4.3;;
26824;SDS011;14402;48.178;11.566;2023-05-07T02:35:42;5.2;;;4.5;;
26824;SDS011;14402;48.178;11.566;2023-05-07T02:36:12;5.7;;;4.7;;
26824;SDS011;14402;48.178;11.566;2023-05-07T02:36:42;5.7;;;4.7;;
26824;SDS011;14402;48.178;11.566;2023-05-07T02:37:12;5.7;;;4.7;;
26824;SDS011;14402;48.178;11.566;2023-05-07T02:37:42;5.9;;;4.6;;
26824;SDS011;14402;48.178;11.566;2023-05-07T02:38:12;6.2;;;4.4;;
26824;SDS011;14402;48.178;11.566;2023-05-07T02:38:42;6.2;;;4.4;;
26824;SDS011;14402;48.178;11.566;2023-05-07T02:39:13;6.2;;;4.4;;
26824;SDS011;14402;48.178;11.566;2023-05-07T02:39:43;5.3;;;4.2;;
26824;SDS011;14402;48.178;11.566;2023-05-07T02:40:13;4.5;;;4.1;;
26824;SDS011;14402;48.178;11.566;2023-05-07T02:40:43;4.5;;;4.1;;
26824;SDS011;14402;48.178;11.566;2023-05-07T02:41:13;4.5;;;4.1;;
26824;SDS011;14402;48.178;11.566;2023-05-07T02:41:43;4.8;;;4.1;;
26824;SDS011;14402;48.178;11.566;2023-05-07T02:42:13;5.0;;;4.2;;
26824;SDS011;14402;48.178;11.566;2023-05-07T02:42:43;5.0;;;4.2;;
26824;SDS011;14402;48.178;11.566;2023-05-07T02:43:13;5.0;;;4.2;;
26824;SDS011;14402;48.178;11.566;2023-05-07T02:43:43;4.9;;;4.2;;
26824;SDS011;14402;48.178;11.566;2023-05-07T02:44:13;4.9;;;4.3;;
26824;SDS011;14402;48.178;11.566;2023-05-07T02:44:43;4.9;;;4.3;;
26824;SDS011;14402;48.178;11.566;2023-05-07T02:45:13;4.9;;;4.3;;
26824;SDS011;14402;48.178;11.566;2023-05-07T02:45:43;5.0;;;4.3;;
26824;SDS011;14402;48.178;11.566;2023-05-07T02:46:13;5.1;;;4.3;;
26824;SDS011;14402;48.178;11.566;2023-05-07T02:46:43;5.1;;;4.3;;
26824;SDS011;14402;48.178;11.566;2023-05-07T02:47:14;5.1;;;4.3;;
26824;SDS011;14402;48.178;11.566;2023-05-07T02:47:43;5.6;;;4.2;;
26824;SDS011;14402;48.178;11.566;2023-05-07T02:48:13;6.0;;;4.1;;
26824;SDS011;14402;48.178;11.566;2023-05-07T02:48:44;6.0;;;4.1;;
26824;SDS011;14402;48.178;11.566;2023-05-07T02:49:14;6.0;;;4.1;;
26824;SDS011;14402;48.178;11.566;2023-05-07T02:49:44;5.5;;;4.2;;
26824;SDS011;14402;48.178;11.566;2023-05-07T02:50:14;5.0;;;4.3;;
26824;SDS011;14402;48.178;11.566;2023-05-07T02:50:44;5.0;;;4.3;;
26824;SDS011;14402;48.178;11.566;2023-05-07T02:51:14;5.0;;;4.3;;
26824;SDS011;14402;48.178;11.566;2023-05-07T02:51:44;5.2;;;4.2;;
26824;SDS011;14402;48.178;11.566;2023-05-07T02:52:14;5.5;;;4.1;;
26824;SDS011;14402;48.178;11.566;2023-05-07T02:52:44;5.5;;;4.1;;
26824;SDS011;14402;48.178;11.566;2023-05-07T02:53:14;5.5;;;4.1;;
26824;SDS011;14402;48.178;11.566;2023-05-07T02:53:44;5.7;;;4.1;;
26824;SDS011;14402;48.178;11.566;2023-05-07T02:54:14;5.8;;;4.2;;
26824;SDS011;14402;48.178;11.566;2023-05-07T02:54:44;5.8;;;4.2;;
26824;SDS011;14402;48.178;11.566;2023-05-07T02:55:14;5.8;;;4.2;;
26824;SDS011;14402;48.178;11.566;2023-05-07T02:55:44;5.8;;;4.3;;
26824;SDS011;14402;48.178;11.566;2023-05-07T02:56:14;5.8;;;4.4;;
26824;SDS011;14402;48.178;11.566;2023-05-07T02:56:44;5.8;;;4.4;;
26824;SDS011;14402;48.178;11.566;2023-05-07T02:57:14;5.8;;;4.4;;
26824;SDS011;14402;48.178;11.566;2023-05-07T02:57:45;5.0;;;4.1;;
26824;SDS011;14402;48.178;11.566;2023-05-07T02:58:15;4.2;;;3.8;;
26824;SDS011;14402;48.178;11.566;2023-05-07T02:58:45;4.2;;;3.8;;
26824;SDS011;14402;48.178;11.566;2023-05-07T02:59:15;4.2;;;3.8;;
26824;SDS011;14402;48.178;11.566;2023-05-07T02:59:46;4.4;;;4.0;;
26824;SDS011;14402;48.178;11.566;2023-05-07T03:00:15;4.7;;;4.2;;
26824;SDS011;14402;48.178;11.566;2023-05-07T03:00:45;4.7;;;4.2;;
26824;SDS011;14402;48.178;11.566;2023-05-07T03:01:15;4.7;;;4.2;;
26824;SDS011;14402;48.178;11.566;2023-05-07T03:01:45;5.6;;;4.2;;
26824;SDS011;14402;48.178;11.566;2023-05-07T03:02:15;6.5;;;4.2;;
26824;SDS011;14402;48.178;11.566;2023-05-07T03:02:45;6.5;;;4.2;;
26824;SDS011;14402;48.178;11.566;2023-05-07T03:03:15;6.5;;;4.2;;